Daily Weather Observations for Burdell (Townsville)
For Saturday 9th February 2019

This table is designed for ease of comparison to Bureau of Meteorology recorded weather data.

Station Details Name: BURDELL Lat: -19.24 Lon: 146.69 Height: 8.5 m
Date/Time
EST
Temp
°C
App
Temp
°C
Dew
Point
°C
Rel
Hum
%
Delta-T
°C
Wind Press
QNH
hPa
Press
MSL
hPa
Rain since
9am
mm
Dir  Spd
km/h
Gust
km/h
Spd
kts
Gust
kts
09/11:30pm 26.5 32.9 25.7 96 0.6 WNW 2 5 1 3 1001.2 1001.2 0.0
09/11:00pm 26.7 32.9 25.7 94 0.7 W 4 5 2 3 1001.3 1001.3 0.0
09/10:30pm 26.7 33.3 25.6 94 0.8 NNW 1 2 1 1 1001.1 1001.1 0.0
09/10:00pm 27.1 33.5 25.7 92 1.0 SE 2 3 1 2 1001.0 1001.0 0.0
09/09:30pm 26.9 33.7 25.7 93 0.9 ESE 1 2 0 1 1000.7 1000.7 0.0
09/09:00pm 27.2 34.0 25.8 92 1.0 ESE 1 2 1 1 1000.2 1000.2 0.0
09/08:30pm 27.4 34.0 25.7 91 1.3 ENE 3 5 1 3 999.7 999.7 0.0
09/08:00pm 27.6 34.4 25.6 89 1.5 CALM 0 0 0 0 999.2 999.2 0.0
09/07:30pm 28.1 34.7 25.7 88 1.8 ENE 1 2 1 1 998.7 998.7 0.0
09/07:00pm 28.9 35.1 25.8 84 2.3 ENE 5 10 3 6 998.4 998.4 0.0
09/06:30pm 30.8 38.9 26.1 78 3.5 NE 4 8 2 4 998.0 998.0 0.0
09/06:00pm 32.4 41.2 26.3 72 4.6 ENE 9 13 5 7 997.1 997.1 0.0
09/05:30pm 33.5 43.7 26.5 67 5.3 ENE 8 10 4 6 996.7 996.7 0.0
09/05:00pm 34.4 45.6 26.9 65 5.7 ENE 7 10 4 6 996.4 996.4 0.0
09/04:30pm 34.7 46.3 27.1 65 5.8 NE 7 13 4 7 996.2 996.2 0.0
09/04:00pm 34.6 46.8 27.3 69 5.6 N 10 16 6 9 996.1 996.1 0.0
09/03:30pm 35.4 46.3 26.4 60 6.8 SE 12 21 7 11 996.4 996.4 0.0
09/03:00pm 35.1 45.8 26.4 61 6.6 SSE 15 21 8 11 996.6 996.6 0.0
09/02:30pm 34.6 43.9 25.7 60 6.7 SSE 16 23 8 13 997.0 997.0 0.0
09/02:00pm 34.2 42.3 25.1 60 6.7 SSE 17 23 9 13 997.2 997.2 0.0
09/01:30pm 33.9 42.7 25.6 62 6.2 SSE 14 21 8 11 997.5 997.5 0.0
09/01:00pm 33.7 43.0 25.9 64 5.8 SSE 16 21 9 11 998.0 998.0 0.0
09/12:30pm 32.8 40.5 25.2 66 5.6 SSE 12 29 6 16 998.7 998.7 0.0
09/12:00pm 31.5 39.0 25.4 70 4.5 SSE 20 26 11 14 999.1 999.1 0.0
09/11:30am 31.7 39.9 25.8 72 4.4 S 19 26 10 14 999.2 999.2 0.0
09/11:00am 31.6 39.6 25.7 71 4.4 S 18 23 10 13 999.5 999.5 0.0
09/10:30am 31.1 39.1 25.9 74 3.9 SSE 21 23 11 13 999.6 999.6 0.0
09/10:00am 30.1 36.8 25.4 77 3.5 SSE 23 29 13 16 999.6 999.6 0.0
09/09:30am 29.1 34.6 24.9 79 3.1 S 18 26 10 14 999.6 999.6 0.0
09/09:00am 28.4 33.5 25.0 82 2.5 S 16 21 9 11 999.6 999.6 0.0
09/08:30am 27.8 32.2 24.8 84 2.2 S 12 16 7 9 999.4 999.4 0.2
09/08:00am 27.3 31.0 24.6 85 2.0 SSE 16 18 9 10 999.2 999.2 0.2
09/07:30am 26.7 30.0 24.4 87 1.7 SSE 14 21 7 11 998.9 998.9 0.2
09/07:00am 25.8 30.2 24.0 90 1.3 SSE 9 16 5 9 998.3 998.3 0.2
09/06:30am 25.4 29.2 23.8 91 1.2 SSE 10 13 5 7 998.1 998.1 0.2
09/06:00am 25.2 29.9 23.8 92 1.0 S 8 13 4 7 997.7 997.7 0.2
09/05:30am 25.2 29.9 23.8 92 1.0 SSE 8 10 4 6 997.5 997.5 0.2
09/05:00am 25.2 29.3 23.8 92 1.0 S 9 13 5 7 997.3 997.3 0.2
09/04:30am 25.2 28.8 23.8 92 1.0 S 13 16 7 9 996.9 996.9 0.2
09/04:00am 25.0 29.3 24.0 94 0.7 S 9 16 5 9 997.0 997.0 0.2
09/03:30am 24.9 28.5 24.0 95 0.7 S 14 16 7 9 997.2 997.2 0.2
09/03:00am 25.2 28.4 24.0 93 0.9 S 14 21 8 11 997.2 997.2 0.2
09/02:30am 25.2 28.8 24.0 93 0.9 SSE 12 16 7 9 997.5 997.5 0.2
09/02:00am 25.2 29.0 24.2 94 0.7 S 12 16 7 9 997.7 997.7 0.2
09/01:30am 25.4 29.1 24.2 93 0.9 S 15 18 8 10 998.1 998.1 0.2
09/01:00am 25.6 28.2 24.2 92 1.0 S 20 29 11 16 998.4 998.4 0.2
09/12:30am 25.7 27.3 24.2 92 1.1 SSE 25 34 14 18 998.2 998.2 0.2
09/12:00am 25.9 27.8 24.3 91 1.2 SSE 24 34 13 18 998.7 998.7 0.2
 


NOTE: The apparent temperature specified in the table above is calculated using both the Heat Index and Steadman method. This differs to the Bureau of Meteorology's calculation which uses the Steadman method alone.